createdAt,value
2022-09-30T00:04:30.029Z,8.20
2022-09-30T00:09:33.212Z,8.10
2022-09-30T00:14:35.998Z,8.10
2022-09-30T00:19:38.821Z,8.10
2022-09-30T00:24:41.541Z,8.10
2022-09-30T00:29:47.439Z,8.10
2022-09-30T00:34:50.217Z,8.10
2022-09-30T00:39:52.907Z,8.10
2022-09-30T00:45:08.230Z,8.10
2022-09-30T00:50:42.601Z,8.00
2022-09-30T00:56:29.226Z,8.00
2022-09-30T01:01:52.073Z,8.00
2022-09-30T01:07:55.480Z,8.00
2022-09-30T01:13:41.748Z,8.00
2022-09-30T01:19:16.741Z,8.00
2022-09-30T01:24:46.707Z,8.00
2022-09-30T01:29:57.631Z,8.00
2022-09-30T01:35:21.865Z,8.00
2022-09-30T01:40:38.374Z,8.00
2022-09-30T01:45:48.397Z,8.00
2022-09-30T01:51:33.898Z,8.00
2022-09-30T01:57:12.146Z,8.00
2022-09-30T02:08:23.843Z,8.00
2022-09-30T02:13:59.018Z,7.90
2022-09-30T02:19:21.947Z,7.90
2022-09-30T02:24:29.359Z,7.90
2022-09-30T02:29:37.571Z,8.00
2022-09-30T02:34:45.600Z,8.00
2022-09-30T02:39:51.799Z,8.00
2022-09-30T02:45:08.650Z,8.10
2022-09-30T02:50:18.217Z,8.10
2022-09-30T02:55:31.299Z,8.10
2022-09-30T03:00:34.299Z,8.10
2022-09-30T03:05:44.975Z,8.10
2022-09-30T03:11:01.943Z,8.10
2022-09-30T03:16:58.743Z,8.10
2022-09-30T03:22:25.252Z,8.10
2022-09-30T03:28:07.143Z,8.10
2022-09-30T03:33:45.920Z,8.10
2022-09-30T03:39:09.929Z,8.10
2022-09-30T03:44:33.458Z,8.10
2022-09-30T03:49:56.252Z,8.10
2022-09-30T03:55:02.860Z,8.10
2022-09-30T04:00:07.199Z,8.10
2022-09-30T04:05:18.216Z,8.10
2022-09-30T04:10:41.910Z,8.20
2022-09-30T04:15:57.901Z,8.20
2022-09-30T04:26:39.688Z,8.10
2022-09-30T04:32:00.199Z,8.10
2022-09-30T04:37:19.379Z,8.10
2022-09-30T04:42:39.850Z,8.00
2022-09-30T04:47:59.744Z,7.90
2022-09-30T04:53:23.902Z,7.80
2022-09-30T04:58:37.255Z,7.70
2022-09-30T05:03:54.713Z,7.70
2022-09-30T05:09:18.565Z,7.70
2022-09-30T05:14:21.999Z,7.70
2022-09-30T05:19:24.918Z,7.70
2022-09-30T05:24:27.751Z,7.70
2022-09-30T05:29:30.464Z,7.70
2022-09-30T05:34:33.254Z,7.70
2022-09-30T05:39:36.864Z,7.70
2022-09-30T05:44:39.563Z,7.80
2022-09-30T05:49:42.341Z,7.80
2022-09-30T05:54:45.031Z,7.90
2022-09-30T05:59:47.779Z,7.90
2022-09-30T06:05:02.468Z,8.00
2022-09-30T06:10:12.288Z,8.00
2022-09-30T06:15:15.078Z,8.10
2022-09-30T06:20:17.841Z,8.20
2022-09-30T06:25:20.919Z,8.40
2022-09-30T06:30:25.015Z,8.50
2022-09-30T06:35:28.963Z,8.60
2022-09-30T06:40:31.904Z,8.70
2022-09-30T06:45:36.711Z,8.80
2022-09-30T06:50:41.849Z,8.90
2022-09-30T06:55:45.928Z,9.00
2022-09-30T07:01:02.351Z,9.20
2022-09-30T07:06:32.510Z,9.20
2022-09-30T07:11:39.384Z,9.30
2022-09-30T07:16:58.706Z,9.40
2022-09-30T07:22:25.538Z,9.50
2022-09-30T07:27:48.789Z,9.50
2022-09-30T07:32:56.789Z,9.80
2022-09-30T07:38:10.795Z,9.80
2022-09-30T07:43:22.280Z,10.00
2022-09-30T07:48:50.782Z,10.10
2022-09-30T07:54:06.156Z,10.20
2022-09-30T07:59:14.175Z,10.20
2022-09-30T08:04:26.509Z,10.30
2022-09-30T08:09:30.875Z,10.30
2022-09-30T08:14:33.903Z,10.40
2022-09-30T08:19:36.606Z,10.50
2022-09-30T08:24:39.311Z,10.60
2022-09-30T08:29:54.615Z,10.80
2022-09-30T08:35:07.264Z,11.00
2022-09-30T08:40:21.188Z,11.30
2022-09-30T08:45:24.264Z,11.60
2022-09-30T08:51:18.251Z,11.90
2022-09-30T08:56:50.705Z,12.50
2022-09-30T09:02:44.049Z,12.80
2022-09-30T09:08:18.767Z,13.30
2022-09-30T09:13:33.390Z,13.30
2022-09-30T09:19:00.921Z,13.80
2022-09-30T09:24:18.737Z,14.10
2022-09-30T09:29:46.158Z,14.20
2022-09-30T09:34:57.756Z,14.50
2022-09-30T09:40:57.582Z,14.70
2022-09-30T09:51:49.603Z,15.20
2022-09-30T09:57:29.067Z,15.30
2022-09-30T10:02:50.207Z,15.40
2022-09-30T10:08:31.432Z,15.60
2022-09-30T10:14:13.446Z,15.60
2022-09-30T10:19:44.735Z,15.80
2022-09-30T10:24:52.278Z,16.00
2022-09-30T10:29:55.087Z,15.70
2022-09-30T10:35:16.648Z,15.90
2022-09-30T10:40:22.238Z,15.90
2022-09-30T10:45:36.763Z,15.70
2022-09-30T10:50:39.680Z,15.80
2022-09-30T10:55:45.460Z,15.70
2022-09-30T11:00:55.212Z,15.60
2022-09-30T11:06:15.763Z,15.40
2022-09-30T11:12:09.203Z,15.50
2022-09-30T11:18:11.558Z,15.40
2022-09-30T11:23:44.526Z,15.40
2022-09-30T11:29:23.901Z,15.40
2022-09-30T11:34:41.654Z,15.40
2022-09-30T11:40:10.294Z,15.30
2022-09-30T11:45:27.161Z,15.30
2022-09-30T11:50:46.758Z,15.30
2022-09-30T11:56:28.357Z,15.10
2022-09-30T12:02:03.119Z,15.40
2022-09-30T12:07:31.455Z,15.50
2022-09-30T12:12:50.963Z,15.70
2022-09-30T12:18:26.717Z,15.90
2022-09-30T12:23:59.041Z,15.90
2022-09-30T12:29:34.915Z,15.80
2022-09-30T12:34:40.929Z,15.80
2022-09-30T12:40:04.049Z,15.80
2022-09-30T12:45:25.530Z,15.70
2022-09-30T12:50:35.031Z,15.70
2022-09-30T12:55:42.420Z,15.90
2022-09-30T13:01:07.580Z,16.20
2022-09-30T13:06:40.113Z,16.40
2022-09-30T13:11:48.336Z,16.60
2022-09-30T13:17:21.427Z,16.50
2022-09-30T13:22:41.165Z,16.40
2022-09-30T13:28:17.494Z,16.30
2022-09-30T13:34:04.724Z,16.40
2022-09-30T13:39:48.064Z,16.40
2022-09-30T13:45:16.397Z,16.20
2022-09-30T13:50:33.193Z,16.20
2022-09-30T13:55:52.788Z,16.30
2022-09-30T14:01:03.830Z,16.10
2022-09-30T14:07:03.263Z,16.00
2022-09-30T14:12:37.129Z,16.00
2022-09-30T14:18:05.628Z,16.00
2022-09-30T14:23:31.223Z,16.20
2022-09-30T14:29:10.280Z,16.30
2022-09-30T14:34:17.658Z,16.20
2022-09-30T14:39:32.748Z,16.20
2022-09-30T14:44:37.068Z,16.40
2022-09-30T14:49:41.684Z,16.70
2022-09-30T14:54:48.168Z,16.80
2022-09-30T14:59:50.893Z,16.90
2022-09-30T15:05:13.685Z,16.90
2022-09-30T15:10:21.604Z,17.00
2022-09-30T15:15:32.182Z,17.00
2022-09-30T15:20:36.910Z,16.90
2022-09-30T15:25:40.001Z,16.60
2022-09-30T15:30:43.554Z,16.60
2022-09-30T15:35:52.694Z,16.30
2022-09-30T15:41:29.757Z,16.10
2022-09-30T15:46:38.059Z,16.30
2022-09-30T15:51:50.413Z,16.30
2022-09-30T15:57:03.162Z,16.10
2022-09-30T16:02:14.960Z,15.90
2022-09-30T16:07:39.185Z,15.50
2022-09-30T16:13:12.655Z,15.40
2022-09-30T16:18:36.827Z,15.20
2022-09-30T16:23:52.655Z,14.90
2022-09-30T16:29:12.044Z,14.50
2022-09-30T16:34:31.594Z,14.20
2022-09-30T16:39:35.077Z,14.00
2022-09-30T16:44:37.923Z,13.70
2022-09-30T16:49:42.760Z,13.40
2022-09-30T16:54:45.549Z,13.20
2022-09-30T16:59:48.254Z,13.00
2022-09-30T17:05:07.825Z,12.60
2022-09-30T17:10:20.113Z,12.40
2022-09-30T17:15:23.895Z,12.20
2022-09-30T17:20:27.843Z,12.00
2022-09-30T17:25:30.562Z,11.80
2022-09-30T17:30:34.065Z,11.50
2022-09-30T17:35:38.813Z,11.30
2022-09-30T17:46:50.104Z,10.90
2022-09-30T17:52:02.004Z,10.80
2022-09-30T17:57:27.976Z,10.60
2022-09-30T18:02:55.890Z,10.50
2022-09-30T18:07:59.477Z,10.40
2022-09-30T18:13:02.206Z,10.20
2022-09-30T18:18:21.551Z,10.10
2022-09-30T18:23:27.350Z,10.00
2022-09-30T18:28:33.546Z,10.00
2022-09-30T18:33:51.473Z,10.10
2022-09-30T18:39:10.597Z,10.10
2022-09-30T18:44:20.906Z,10.00
2022-09-30T18:49:24.173Z,10.10
2022-09-30T18:54:26.934Z,10.10
2022-09-30T18:59:29.862Z,10.00
2022-09-30T19:04:42.760Z,9.90
2022-09-30T19:09:46.666Z,9.90
2022-09-30T19:15:14.215Z,9.90
2022-09-30T19:20:30.654Z,9.80
2022-09-30T19:25:34.653Z,9.70
2022-09-30T19:30:42.160Z,9.70
2022-09-30T19:35:44.941Z,9.50
2022-09-30T19:41:15.653Z,9.50
2022-09-30T19:46:28.470Z,9.40
2022-09-30T19:57:17.381Z,9.20
2022-09-30T20:02:43.265Z,9.10
2022-09-30T20:07:58.387Z,9.00
2022-09-30T20:13:03.937Z,8.90
2022-09-30T20:18:13.294Z,8.80
2022-09-30T20:23:21.933Z,8.70
2022-09-30T20:28:28.886Z,8.70
2022-09-30T20:33:33.219Z,8.70
2022-09-30T20:38:53.047Z,8.60
2022-09-30T20:44:02.481Z,8.50
2022-09-30T20:49:11.912Z,8.40
2022-09-30T20:54:16.043Z,8.40
2022-09-30T20:59:19.677Z,8.30
2022-09-30T21:04:28.139Z,8.30
2022-09-30T21:09:34.742Z,8.30
2022-09-30T21:14:38.834Z,8.30
2022-09-30T21:19:41.498Z,8.20
2022-09-30T21:24:44.196Z,8.10
2022-09-30T21:29:46.901Z,8.00
2022-09-30T21:34:49.664Z,8.00
2022-09-30T21:39:52.449Z,8.10
2022-09-30T21:44:55.481Z,8.10
2022-09-30T21:49:58.290Z,8.00
2022-09-30T21:55:01.011Z,8.00
2022-09-30T22:00:05.709Z,7.90
2022-09-30T22:05:20.749Z,7.80
2022-09-30T22:10:23.486Z,7.70
2022-09-30T22:15:26.316Z,7.60
2022-09-30T22:20:30.497Z,7.50
2022-09-30T22:25:33.334Z,7.40
2022-09-30T22:30:36.193Z,7.30
2022-09-30T22:35:57.251Z,7.20
2022-09-30T22:41:00.000Z,7.10
2022-09-30T22:46:03.125Z,7.10
2022-09-30T22:51:06.033Z,7.00
2022-09-30T22:56:08.958Z,7.00
2022-09-30T23:01:12.532Z,6.90
2022-09-30T23:06:17.604Z,6.90
2022-09-30T23:11:23.304Z,6.80
2022-09-30T23:16:26.262Z,6.80
2022-09-30T23:21:28.965Z,6.80
2022-09-30T23:26:32.065Z,6.80
2022-09-30T23:31:35.453Z,6.70
2022-09-30T23:36:38.941Z,6.70
2022-09-30T23:41:46.395Z,6.70
2022-09-30T23:47:08.195Z,6.70
2022-09-30T23:52:13.311Z,6.60
2022-09-30T23:57:16.173Z,6.60
